createdAt,value
2018-09-18T00:00:28.642Z,0.00
2018-09-18T00:01:28.593Z,0.00
2018-09-18T00:02:28.547Z,0.00
2018-09-18T00:03:28.518Z,0.00
2018-09-18T00:04:28.473Z,0.00
2018-09-18T00:05:28.467Z,0.00
2018-09-18T00:06:28.401Z,0.00
2018-09-18T00:07:28.376Z,0.00
2018-09-18T00:08:28.335Z,0.00
2018-09-18T00:09:28.301Z,0.00
2018-09-18T00:10:28.267Z,0.00
2018-09-18T00:11:28.190Z,0.00
2018-09-18T00:12:28.165Z,0.00
2018-09-18T00:13:28.125Z,0.00
2018-09-18T00:14:28.122Z,0.00
2018-09-18T00:15:28.066Z,0.00
2018-09-18T00:16:27.989Z,0.00
2018-09-18T00:17:27.955Z,0.00
2018-09-18T00:18:27.938Z,0.00
2018-09-18T00:19:27.875Z,0.00
2018-09-18T00:20:27.856Z,0.00
2018-09-18T00:21:27.832Z,0.00
2018-09-18T00:22:27.773Z,0.00
2018-09-18T00:23:27.734Z,0.00
2018-09-18T00:24:27.680Z,0.00
2018-09-18T00:25:27.638Z,0.00
2018-09-18T00:26:27.641Z,0.00
2018-09-18T00:27:27.569Z,0.00
2018-09-18T00:28:27.526Z,0.00
2018-09-18T00:29:27.495Z,0.00
2018-09-18T00:30:27.480Z,0.00
2018-09-18T00:31:27.423Z,0.00
2018-09-18T00:32:27.376Z,0.00
2018-09-18T00:33:27.342Z,0.00
2018-09-18T00:34:27.298Z,0.00
2018-09-18T00:35:27.255Z,0.00
2018-09-18T00:36:27.211Z,0.00
2018-09-18T00:37:27.189Z,0.00
2018-09-18T00:38:27.176Z,0.00
2018-09-18T00:39:27.116Z,0.00
2018-09-18T00:40:27.060Z,0.00
2018-09-18T00:41:27.024Z,0.00
2018-09-18T00:42:26.989Z,0.00
2018-09-18T00:43:26.934Z,0.00
2018-09-18T00:44:26.896Z,0.00
2018-09-18T00:45:26.860Z,0.00
2018-09-18T00:46:26.848Z,0.00
2018-09-18T00:47:26.797Z,0.00
2018-09-18T00:48:26.760Z,0.00
2018-09-18T00:49:26.714Z,0.00
2018-09-18T00:50:26.692Z,0.00
2018-09-18T00:51:26.640Z,0.00
2018-09-18T00:52:26.647Z,0.00
2018-09-18T00:53:26.598Z,0.00
2018-09-18T00:54:26.541Z,0.00
2018-09-18T00:55:26.473Z,0.00
2018-09-18T00:56:26.478Z,0.00
2018-09-18T00:57:26.402Z,0.00
2018-09-18T00:58:26.355Z,0.00
2018-09-18T00:59:26.330Z,0.00
2018-09-18T01:00:26.303Z,0.00
2018-09-18T01:01:26.260Z,0.00
2018-09-18T01:02:26.185Z,0.00
2018-09-18T01:03:26.176Z,0.00
2018-09-18T01:04:26.124Z,0.00
2018-09-18T01:05:26.080Z,0.00
2018-09-18T01:06:26.035Z,0.00
2018-09-18T01:07:25.991Z,0.00
2018-09-18T01:08:25.983Z,0.00
2018-09-18T01:09:25.935Z,0.00
2018-09-18T01:10:25.884Z,0.00
2018-09-18T01:11:25.836Z,0.00
2018-09-18T01:12:25.794Z,0.00
2018-09-18T01:13:25.774Z,0.00
2018-09-18T01:14:25.720Z,0.00
2018-09-18T01:15:25.705Z,0.00
2018-09-18T01:16:25.641Z,0.00
2018-09-18T01:17:25.626Z,0.00
2018-09-18T01:18:25.591Z,0.00
2018-09-18T01:19:25.629Z,0.00
2018-09-18T01:20:25.485Z,0.00
2018-09-18T01:21:25.444Z,0.00
2018-09-18T01:22:25.400Z,0.00
2018-09-18T01:23:25.365Z,0.00
2018-09-18T01:24:25.362Z,0.00
2018-09-18T01:25:25.276Z,0.00
2018-09-18T01:26:25.270Z,0.00
2018-09-18T01:27:25.224Z,0.00
2018-09-18T01:28:25.175Z,0.00
2018-09-18T01:29:25.169Z,0.00
2018-09-18T01:30:25.092Z,0.00
2018-09-18T01:31:25.069Z,0.00
2018-09-18T01:32:25.030Z,0.00
2018-09-18T01:33:24.993Z,0.00
2018-09-18T01:34:24.964Z,0.00
2018-09-18T01:35:24.928Z,0.00
2018-09-18T01:36:24.868Z,0.00
2018-09-18T01:37:24.830Z,0.00
2018-09-18T01:38:24.787Z,0.00
2018-09-18T01:39:24.729Z,0.00
2018-09-18T01:40:24.712Z,0.00
2018-09-18T01:41:24.683Z,0.00
2018-09-18T01:42:24.615Z,0.00
2018-09-18T01:43:24.585Z,0.00
2018-09-18T01:44:24.558Z,0.00
2018-09-18T01:45:24.530Z,0.00
2018-09-18T01:46:24.494Z,0.00
2018-09-18T01:47:24.432Z,0.00
2018-09-18T01:48:24.395Z,0.00
2018-09-18T01:49:24.350Z,0.00
2018-09-18T01:50:24.307Z,0.00
2018-09-18T01:51:24.313Z,0.00
2018-09-18T01:52:24.229Z,0.00
2018-09-18T01:53:24.205Z,0.00
2018-09-18T01:54:24.144Z,0.00
2018-09-18T01:55:24.112Z,0.00
2018-09-18T01:56:24.097Z,0.00
2018-09-18T01:57:24.028Z,0.00
2018-09-18T01:58:24.007Z,0.00
2018-09-18T01:59:23.938Z,0.00
2018-09-18T02:00:23.916Z,0.00
2018-09-18T02:01:23.865Z,0.00
2018-09-18T02:02:23.854Z,0.00
2018-09-18T02:03:23.788Z,0.00
2018-09-18T02:04:23.765Z,0.00
2018-09-18T02:05:23.717Z,0.00
2018-09-18T02:06:23.679Z,0.00
2018-09-18T02:07:23.624Z,0.00
2018-09-18T02:08:23.612Z,0.00
2018-09-18T02:09:23.566Z,0.00
2018-09-18T02:10:23.504Z,0.00
2018-09-18T02:11:23.474Z,0.00
2018-09-18T02:12:23.458Z,0.00
2018-09-18T02:13:23.415Z,0.00
2018-09-18T02:14:23.397Z,0.00
2018-09-18T02:15:23.308Z,0.00
2018-09-18T02:16:23.270Z,0.00
2018-09-18T02:17:23.235Z,0.00
2018-09-18T02:18:23.197Z,0.00
2018-09-18T02:19:23.152Z,0.00
2018-09-18T02:20:23.148Z,0.00
2018-09-18T02:21:23.083Z,0.00
2018-09-18T02:22:23.074Z,0.00
2018-09-18T02:23:23.002Z,0.00
2018-09-18T02:24:22.967Z,0.00
2018-09-18T02:25:22.926Z,0.00
2018-09-18T02:26:22.890Z,0.00
2018-09-18T02:27:22.849Z,0.00
2018-09-18T02:28:22.836Z,0.00
2018-09-18T02:29:22.767Z,0.00
2018-09-18T02:30:22.734Z,0.00
2018-09-18T02:31:22.671Z,0.00
2018-09-18T02:32:22.662Z,0.00
2018-09-18T02:33:22.603Z,0.00
2018-09-18T02:34:22.564Z,0.00
2018-09-18T02:35:22.515Z,0.00
2018-09-18T02:36:22.487Z,0.00
2018-09-18T02:37:22.447Z,0.00
2018-09-18T02:38:22.403Z,0.00
2018-09-18T02:39:22.358Z,0.00
2018-09-18T02:40:22.342Z,0.00
2018-09-18T02:41:22.284Z,0.00
2018-09-18T02:42:22.296Z,0.00
2018-09-18T02:43:22.215Z,0.00
2018-09-18T02:44:22.187Z,0.00
2018-09-18T02:45:22.125Z,0.00
2018-09-18T02:46:22.105Z,0.00
2018-09-18T02:47:22.045Z,0.00
2018-09-18T02:48:22.046Z,0.00
2018-09-18T02:49:21.968Z,0.00
2018-09-18T02:50:21.923Z,0.00
2018-09-18T02:51:21.894Z,0.00
2018-09-18T02:52:21.875Z,0.00
2018-09-18T02:53:21.805Z,0.00
2018-09-18T02:54:21.768Z,0.00
2018-09-18T02:55:21.756Z,0.00
2018-09-18T02:56:21.700Z,0.00
2018-09-18T02:57:21.644Z,0.00
2018-09-18T02:58:21.610Z,0.00
2018-09-18T02:59:21.584Z,0.00
2018-09-18T03:00:21.533Z,0.00
2018-09-18T03:01:21.508Z,0.00
2018-09-18T03:02:21.478Z,0.00
2018-09-18T03:03:21.450Z,0.00
2018-09-18T03:04:21.386Z,0.00
2018-09-18T03:05:21.340Z,0.00
2018-09-18T03:06:21.314Z,0.00
2018-09-18T03:07:21.263Z,0.00
2018-09-18T03:08:21.226Z,0.00
2018-09-18T03:09:21.173Z,0.00
2018-09-18T03:10:21.152Z,0.00
2018-09-18T03:11:21.147Z,0.00
2018-09-18T03:12:21.046Z,0.00
2018-09-18T03:13:21.070Z,0.00
2018-09-18T03:14:20.982Z,0.00
2018-09-18T03:15:20.938Z,0.00
2018-09-18T03:16:20.923Z,0.00
2018-09-18T03:17:20.852Z,0.00
2018-09-18T03:18:20.847Z,0.00
2018-09-18T03:19:20.762Z,0.00
2018-09-18T03:20:20.738Z,0.00
2018-09-18T03:21:20.711Z,0.00
2018-09-18T03:22:20.694Z,0.00
2018-09-18T03:23:20.624Z,0.00
2018-09-18T03:24:20.595Z,0.00
2018-09-18T03:25:20.546Z,0.00
2018-09-18T03:26:20.499Z,0.00
2018-09-18T03:27:20.465Z,0.00
2018-09-18T03:28:20.434Z,0.00
2018-09-18T03:29:20.401Z,0.00
2018-09-18T03:30:20.361Z,0.00
2018-09-18T03:31:20.304Z,0.00
2018-09-18T03:32:20.251Z,0.00
2018-09-18T03:33:20.228Z,0.00
2018-09-18T03:34:20.174Z,0.00
2018-09-18T03:35:20.176Z,0.00
2018-09-18T03:36:20.095Z,0.00
2018-09-18T03:37:20.085Z,0.00
2018-09-18T03:38:20.015Z,0.00
2018-09-18T03:39:19.971Z,0.00
2018-09-18T03:40:19.945Z,0.00
2018-09-18T03:41:19.939Z,0.00
2018-09-18T03:42:19.848Z,0.00
2018-09-18T03:43:19.843Z,0.00
2018-09-18T03:44:19.790Z,0.00
2018-09-18T03:45:19.764Z,0.00
2018-09-18T03:46:19.675Z,0.00
2018-09-18T03:47:19.669Z,0.00
2018-09-18T03:48:19.642Z,0.00
2018-09-18T03:49:19.569Z,0.00
2018-09-18T03:50:19.555Z,0.00
2018-09-18T03:51:19.562Z,0.00
2018-09-18T03:52:19.479Z,0.00
2018-09-18T03:53:19.423Z,0.00
2018-09-18T03:54:19.385Z,0.00
2018-09-18T03:55:19.336Z,0.00
2018-09-18T03:56:19.306Z,0.00
2018-09-18T03:57:19.269Z,0.00
2018-09-18T03:58:19.241Z,0.00
2018-09-18T03:59:19.178Z,0.00
2018-09-18T04:00:19.134Z,0.00
2018-09-18T04:01:19.128Z,0.00
2018-09-18T04:02:19.074Z,0.00
2018-09-18T04:03:19.019Z,0.00
2018-09-18T04:04:19.034Z,0.00
2018-09-18T04:05:18.940Z,0.00
2018-09-18T04:06:18.922Z,0.00
2018-09-18T04:07:18.853Z,0.00
2018-09-18T04:08:18.839Z,0.00
2018-09-18T04:09:18.787Z,0.00
2018-09-18T04:10:18.758Z,0.00
2018-09-18T04:11:18.724Z,0.00
2018-09-18T04:12:18.671Z,0.00
2018-09-18T04:13:18.635Z,0.00
2018-09-18T04:14:18.575Z,0.00
2018-09-18T04:15:18.538Z,0.00
2018-09-18T04:16:18.501Z,0.00
2018-09-18T04:17:18.502Z,0.00
2018-09-18T04:18:18.434Z,0.00
2018-09-18T04:19:18.391Z,0.00
2018-09-18T04:20:18.335Z,4.00
2018-09-18T04:21:18.336Z,4.00
2018-09-18T04:22:18.288Z,4.00
2018-09-18T04:23:18.254Z,4.00
2018-09-18T04:24:18.186Z,4.00
2018-09-18T04:25:18.183Z,8.00
2018-09-18T04:26:18.117Z,4.00
2018-09-18T04:27:18.072Z,8.00
2018-09-18T04:28:18.015Z,8.00
2018-09-18T04:29:17.995Z,16.00
2018-09-18T04:30:17.944Z,16.00
2018-09-18T04:31:17.928Z,20.00
2018-09-18T04:32:17.906Z,20.00
2018-09-18T04:33:17.826Z,28.00
2018-09-18T04:34:17.783Z,32.00
2018-09-18T04:35:17.744Z,36.00
2018-09-18T04:36:17.715Z,44.00
2018-09-18T04:37:17.666Z,56.00
2018-09-18T04:38:17.756Z,64.00
2018-09-18T04:39:17.579Z,76.00
2018-09-18T04:40:17.545Z,88.00
2018-09-18T04:41:17.518Z,100.00
2018-09-18T04:42:17.455Z,116.00
2018-09-18T04:43:17.459Z,136.00
2018-09-18T04:44:17.382Z,156.00
2018-09-18T04:45:17.401Z,176.00
2018-09-18T04:46:17.293Z,200.00
2018-09-18T04:47:17.293Z,220.00
2018-09-18T04:48:17.237Z,248.00
2018-09-18T04:49:17.199Z,276.00
2018-09-18T04:50:17.167Z,300.00
2018-09-18T04:51:17.112Z,336.00
2018-09-18T04:52:17.075Z,364.00
2018-09-18T04:53:17.015Z,392.00
2018-09-18T04:54:16.994Z,428.00
2018-09-18T04:55:17.098Z,464.00
2018-09-18T04:56:16.937Z,504.00
2018-09-18T04:57:16.860Z,548.00
2018-09-18T04:58:16.881Z,596.00
2018-09-18T04:59:16.818Z,644.00
2018-09-18T05:00:16.803Z,696.00
2018-09-18T05:01:16.728Z,748.00
2018-09-18T05:02:16.684Z,804.00
2018-09-18T05:03:16.629Z,860.00
2018-09-18T05:04:16.631Z,916.00
2018-09-18T05:05:16.552Z,980.00
2018-09-18T05:06:16.525Z,1040.00
2018-09-18T05:07:16.633Z,1104.00
2018-09-18T05:08:16.419Z,1172.00
2018-09-18T05:09:16.424Z,1232.00
2018-09-18T05:10:16.376Z,1300.00
2018-09-18T05:11:16.344Z,1364.00
2018-09-18T05:12:16.263Z,1436.00
2018-09-18T05:13:16.231Z,1504.00
2018-09-18T05:14:16.188Z,1576.00
2018-09-18T05:15:16.161Z,1644.00
2018-09-18T05:16:16.109Z,1720.00
2018-09-18T05:17:16.091Z,1788.00
2018-09-18T05:18:16.037Z,1856.00
2018-09-18T05:19:15.990Z,1932.00
2018-09-18T05:20:15.964Z,2000.00
2018-09-18T05:21:15.889Z,2072.00
2018-09-18T05:22:15.868Z,2140.00
2018-09-18T05:23:15.830Z,2212.00
2018-09-18T05:24:15.791Z,2288.00
2018-09-18T05:25:15.755Z,2368.00
2018-09-18T05:26:15.727Z,2448.00
2018-09-18T05:27:15.667Z,2536.00
2018-09-18T05:28:15.710Z,2628.00
2018-09-18T05:29:15.578Z,2728.00
2018-09-18T05:30:15.585Z,2824.00
2018-09-18T05:31:15.530Z,2928.00
2018-09-18T05:32:15.455Z,3040.00
2018-09-18T05:33:15.447Z,3144.00
2018-09-18T05:34:15.404Z,3252.00
2018-09-18T05:35:15.388Z,3356.00
2018-09-18T05:36:15.288Z,3460.00
2018-09-18T05:37:15.290Z,3560.00
2018-09-18T05:38:15.211Z,3672.00
2018-09-18T05:39:15.203Z,3780.00
2018-09-18T05:40:15.167Z,3892.00
2018-09-18T05:41:15.123Z,4000.00
2018-09-18T05:42:15.116Z,4088.00
2018-09-18T05:43:15.144Z,4192.00
2018-09-18T05:44:16.119Z,4284.00
2018-09-18T05:45:15.031Z,4360.00
2018-09-18T05:46:14.901Z,4432.00
2018-09-18T05:47:14.852Z,4504.00
2018-09-18T05:48:14.923Z,4576.00
2018-09-18T05:49:14.838Z,4672.00
2018-09-18T05:50:14.734Z,4764.00
2018-09-18T05:51:14.693Z,4876.00
2018-09-18T05:52:14.668Z,4992.00
2018-09-18T05:53:14.638Z,5092.00
2018-09-18T05:54:14.585Z,5208.00
2018-09-18T05:55:14.535Z,5336.00
2018-09-18T05:56:14.500Z,5464.00
2018-09-18T05:57:14.512Z,5576.00
2018-09-18T05:58:14.444Z,5700.00
2018-09-18T05:59:14.409Z,5836.00
2018-09-18T06:00:14.363Z,5976.00
2018-09-18T06:01:14.325Z,6096.00
2018-09-18T06:02:14.298Z,6176.00
2018-09-18T06:03:14.233Z,6248.00
2018-09-18T06:04:14.212Z,6344.00
2018-09-18T06:05:14.141Z,6448.00
2018-09-18T06:06:14.115Z,6560.00
2018-09-18T06:07:14.069Z,6672.00
2018-09-18T06:08:14.062Z,6792.00
2018-09-18T06:09:14.009Z,6912.00
2018-09-18T06:10:13.971Z,7012.00
2018-09-18T06:11:13.898Z,7152.00
2018-09-18T06:12:13.877Z,7296.00
2018-09-18T06:13:13.824Z,7580.00
2018-09-18T06:14:13.812Z,7916.00
2018-09-18T06:15:13.771Z,7712.00
2018-09-18T06:16:13.734Z,7560.00
2018-09-18T06:17:13.683Z,7604.00
2018-09-18T06:18:13.647Z,7660.00
2018-09-18T06:19:13.664Z,7800.00
2018-09-18T06:20:13.559Z,7832.00
2018-09-18T06:21:13.542Z,7752.00
2018-09-18T06:22:13.469Z,7784.00
2018-09-18T06:23:13.437Z,7804.00
2018-09-18T06:24:13.429Z,7828.00
2018-09-18T06:25:13.375Z,7844.00
2018-09-18T06:26:13.389Z,7896.00
2018-09-18T06:27:13.308Z,8024.00
2018-09-18T06:28:13.261Z,8280.00
2018-09-18T06:29:13.210Z,8692.00
2018-09-18T06:30:13.188Z,9228.00
2018-09-18T06:31:13.170Z,9000.00
2018-09-18T06:32:13.113Z,8644.00
2018-09-18T06:33:13.096Z,9056.00
2018-09-18T06:34:13.027Z,9396.00
2018-09-18T06:35:12.983Z,9508.00
2018-09-18T06:36:12.944Z,9320.00
2018-09-18T06:37:12.901Z,8928.00
2018-09-18T06:38:12.884Z,9360.00
2018-09-18T06:39:12.882Z,9816.00
2018-09-18T06:40:12.785Z,10360.00
2018-09-18T06:41:12.769Z,12660.00
2018-09-18T06:42:12.769Z,16044.00
2018-09-18T06:43:12.679Z,19680.00
2018-09-18T06:44:12.650Z,22240.00
2018-09-18T06:45:12.604Z,24416.00
2018-09-18T06:46:12.572Z,24864.00
2018-09-18T06:47:12.527Z,23744.00
2018-09-18T06:48:12.509Z,24384.00
2018-09-18T06:49:12.466Z,26752.00
2018-09-18T06:50:12.426Z,27168.00
2018-09-18T06:51:12.403Z,26752.00
2018-09-18T06:52:12.343Z,26496.00
2018-09-18T06:53:12.318Z,24960.00
2018-09-18T06:54:12.341Z,25664.00
2018-09-18T06:55:12.248Z,27808.00
2018-09-18T06:56:12.220Z,28096.00
2018-09-18T06:57:12.170Z,27552.00
2018-09-18T06:58:12.148Z,27488.00
2018-09-18T06:59:12.118Z,28224.00
2018-09-18T07:00:12.114Z,29024.00
2018-09-18T07:01:12.057Z,28864.00
2018-09-18T07:02:12.012Z,29728.00
2018-09-18T07:03:11.975Z,31200.00
2018-09-18T07:04:11.955Z,31456.00
2018-09-18T07:05:11.930Z,31840.00
2018-09-18T07:06:11.888Z,31296.00
2018-09-18T07:07:11.858Z,32352.00
2018-09-18T07:08:11.818Z,34208.00
2018-09-18T07:09:11.802Z,34560.00
2018-09-18T07:10:11.782Z,32768.00
2018-09-18T07:11:11.754Z,30784.00
2018-09-18T07:12:11.711Z,29888.00
2018-09-18T07:13:11.691Z,30816.00
2018-09-18T07:14:11.667Z,33824.00
2018-09-18T07:15:11.628Z,34816.00
2018-09-18T07:16:11.602Z,32512.00
2018-09-18T07:17:11.567Z,33184.00
2018-09-18T07:18:11.625Z,32736.00
2018-09-18T07:19:11.529Z,28640.00
2018-09-18T07:20:11.487Z,27520.00
2018-09-18T07:21:11.460Z,30592.00
2018-09-18T07:22:11.430Z,34144.00
2018-09-18T07:23:11.405Z,35744.00
2018-09-18T07:24:11.532Z,40480.00
2018-09-18T07:25:11.342Z,38688.00
2018-09-18T07:26:11.320Z,39136.00
2018-09-18T07:27:11.294Z,40288.00
2018-09-18T07:28:11.287Z,39904.00
2018-09-18T07:29:11.248Z,42432.00
2018-09-18T07:30:11.221Z,41344.00
2018-09-18T07:31:11.172Z,36768.00
2018-09-18T07:32:11.161Z,34240.00
2018-09-18T07:33:11.158Z,32864.00
2018-09-18T07:34:11.109Z,38368.00
2018-09-18T07:35:11.099Z,36448.00
2018-09-18T07:36:11.091Z,28992.00
2018-09-18T07:37:11.029Z,16504.00
2018-09-18T07:38:10.999Z,19168.00
2018-09-18T07:39:10.981Z,22208.00
2018-09-18T07:40:10.953Z,18336.00
2018-09-18T07:41:11.096Z,19680.00
2018-09-18T07:42:10.871Z,17172.00
2018-09-18T07:43:10.856Z,11992.00
2018-09-18T07:44:10.869Z,11256.00
2018-09-18T07:45:10.820Z,11768.00
2018-09-18T07:46:10.797Z,11684.00
2018-09-18T07:47:10.760Z,14136.00
2018-09-18T07:48:10.711Z,17200.00
2018-09-18T07:49:10.679Z,20288.00
2018-09-18T07:50:10.655Z,15644.00
2018-09-18T07:51:10.632Z,10648.00
2018-09-18T07:52:10.658Z,10700.00
2018-09-18T07:53:10.584Z,10788.00
2018-09-18T07:54:10.612Z,10752.00
2018-09-18T07:55:10.518Z,10812.00
2018-09-18T07:56:10.522Z,11040.00
2018-09-18T07:57:10.482Z,13124.00
2018-09-18T07:58:10.450Z,11508.00
2018-09-18T07:59:10.413Z,12344.00
2018-09-18T08:00:10.372Z,15500.00
2018-09-18T08:01:10.395Z,11704.00
2018-09-18T08:02:10.334Z,13384.00
2018-09-18T08:03:10.388Z,12112.00
2018-09-18T08:04:10.258Z,11260.00
2018-09-18T08:05:10.220Z,12588.00
2018-09-18T08:06:10.216Z,11624.00
2018-09-18T08:07:10.202Z,12304.00
2018-09-18T08:08:10.153Z,14820.00
2018-09-18T08:09:10.100Z,11404.00
2018-09-18T08:10:10.077Z,10920.00
2018-09-18T08:11:10.044Z,10520.00
2018-09-18T08:12:10.052Z,10504.00
2018-09-18T08:13:10.017Z,10732.00
2018-09-18T08:14:09.964Z,10520.00
2018-09-18T08:15:09.986Z,10960.00
2018-09-18T08:16:09.943Z,10692.00
2018-09-18T08:17:09.896Z,12224.00
2018-09-18T08:18:09.881Z,11416.00
2018-09-18T08:19:09.854Z,17784.00
2018-09-18T08:20:09.813Z,11596.00
2018-09-18T08:21:09.756Z,10912.00
2018-09-18T08:22:09.800Z,10552.00
2018-09-18T08:23:09.727Z,10616.00
2018-09-18T08:24:09.671Z,10508.00
2018-09-18T08:25:09.711Z,10516.00
2018-09-18T08:26:09.632Z,10560.00
2018-09-18T08:27:09.590Z,10600.00
2018-09-18T08:28:09.542Z,10740.00
2018-09-18T08:29:09.525Z,13316.00
2018-09-18T08:30:09.479Z,17060.00
2018-09-18T08:31:09.466Z,14344.00
2018-09-18T08:32:09.430Z,11184.00
2018-09-18T08:33:09.401Z,18540.00
2018-09-18T08:34:09.390Z,13580.00
2018-09-18T08:35:09.386Z,23904.00
2018-09-18T08:36:09.315Z,34464.00
2018-09-18T08:37:09.292Z,16156.00
2018-09-18T08:38:09.291Z,14680.00
2018-09-18T08:39:09.267Z,33536.00
2018-09-18T08:40:09.402Z,38112.00
2018-09-18T08:41:09.163Z,28416.00
2018-09-18T08:42:09.160Z,20608.00
2018-09-18T08:43:09.119Z,30560.00
2018-09-18T08:44:09.091Z,57088.00
2018-09-18T08:45:09.056Z,71520.00
2018-09-18T08:46:09.035Z,71744.00
2018-09-18T08:47:09.033Z,73024.00
2018-09-18T08:48:08.981Z,70816.00
2018-09-18T08:49:08.984Z,48608.00
2018-09-18T08:50:08.944Z,70720.00
2018-09-18T08:51:08.893Z,34272.00
2018-09-18T08:52:08.969Z,19648.00
2018-09-18T08:53:08.880Z,35840.00
2018-09-18T08:54:08.870Z,42336.00
2018-09-18T08:55:08.794Z,11184.00
2018-09-18T08:56:08.805Z,52000.00
2018-09-18T08:57:08.757Z,25824.00
2018-09-18T08:58:08.738Z,31488.00
2018-09-18T08:59:08.719Z,30624.00
2018-09-18T09:00:08.670Z,30848.00
2018-09-18T09:01:08.685Z,33088.00
2018-09-18T09:02:08.623Z,27520.00
2018-09-18T09:03:08.663Z,29376.00
2018-09-18T09:04:08.619Z,42848.00
2018-09-18T09:05:08.616Z,47776.00
2018-09-18T09:06:08.595Z,40576.00
2018-09-18T09:07:08.505Z,17572.00
2018-09-18T09:08:08.629Z,59744.00
2018-09-18T09:09:08.455Z,78048.00
2018-09-18T09:10:08.521Z,79520.00
2018-09-18T09:11:08.434Z,82080.00
2018-09-18T09:12:08.385Z,86944.00
2018-09-18T09:13:08.401Z,82400.00
2018-09-18T09:14:08.400Z,75200.00
2018-09-18T09:15:08.403Z,70144.00
2018-09-18T09:16:08.337Z,74016.00
2018-09-18T09:17:08.269Z,83104.00
2018-09-18T09:18:08.402Z,79808.00
2018-09-18T09:19:08.240Z,87136.00
2018-09-18T09:20:08.238Z,78784.00
2018-09-18T09:21:08.220Z,73728.00
2018-09-18T09:22:08.268Z,78048.00
2018-09-18T09:23:08.354Z,74720.00
2018-09-18T09:24:08.124Z,76576.00
2018-09-18T09:25:08.100Z,72736.00
2018-09-18T09:26:08.080Z,78752.00
2018-09-18T09:27:08.082Z,86720.00
2018-09-18T09:28:08.047Z,88160.00
2018-09-18T09:29:08.015Z,86304.00
2018-09-18T09:30:08.079Z,79360.00
2018-09-18T09:31:08.051Z,73984.00
2018-09-18T09:32:08.099Z,75328.00
2018-09-18T09:33:07.945Z,79264.00
2018-09-18T09:34:07.908Z,87072.00
2018-09-18T09:35:07.909Z,83328.00
2018-09-18T09:36:07.907Z,75776.00
2018-09-18T09:37:07.973Z,82656.00
2018-09-18T09:38:07.861Z,82848.00
2018-09-18T09:39:07.851Z,83008.00
2018-09-18T09:40:07.787Z,79200.00
2018-09-18T09:41:07.777Z,85920.00
2018-09-18T09:42:07.742Z,86656.00
2018-09-18T09:43:07.741Z,87840.00
2018-09-18T09:44:07.740Z,81440.00
2018-09-18T09:45:07.792Z,88128.00
2018-09-18T09:46:07.690Z,86080.00
2018-09-18T09:47:07.672Z,92960.00
2018-09-18T09:48:07.652Z,82752.00
2018-09-18T09:49:07.634Z,76256.00
2018-09-18T09:50:07.620Z,64896.00
2018-09-18T09:51:07.649Z,68512.00
2018-09-18T09:52:07.590Z,76640.00
2018-09-18T09:53:07.552Z,85120.00
2018-09-18T09:54:07.543Z,87872.00
2018-09-18T09:55:07.524Z,84928.00
2018-09-18T09:56:07.515Z,80352.00
2018-09-18T09:57:07.490Z,87712.00
2018-09-18T09:58:07.472Z,87712.00
2018-09-18T09:59:07.453Z,86368.00
2018-09-18T10:00:07.447Z,79904.00
2018-09-18T10:01:07.416Z,76192.00
2018-09-18T10:02:07.414Z,82944.00
2018-09-18T10:03:07.393Z,78048.00
2018-09-18T10:04:07.370Z,88448.00
2018-09-18T10:05:08.061Z,92192.00
2018-09-18T10:06:07.334Z,91328.00
2018-09-18T10:07:07.314Z,93728.00
2018-09-18T10:08:07.293Z,83360.00
2018-09-18T10:09:07.281Z,91776.00
2018-09-18T10:10:07.272Z,82336.00
2018-09-18T10:11:07.310Z,80896.00
2018-09-18T10:12:07.252Z,84832.00
2018-09-18T10:13:07.225Z,82496.00
2018-09-18T10:14:07.225Z,76768.00
2018-09-18T10:15:07.198Z,87232.00
2018-09-18T10:16:07.170Z,92448.00
2018-09-18T10:17:07.143Z,86784.00
2018-09-18T10:18:07.197Z,83008.00
2018-09-18T10:19:07.159Z,74176.00
2018-09-18T10:20:07.094Z,87968.00
2018-09-18T10:21:07.109Z,83648.00
2018-09-18T10:22:07.070Z,87360.00
2018-09-18T10:23:07.114Z,85856.00
2018-09-18T10:24:07.077Z,96224.00
2018-09-18T10:25:07.037Z,95168.00
2018-09-18T10:26:07.119Z,92128.00
2018-09-18T10:27:07.123Z,88768.00
2018-09-18T10:28:07.003Z,90624.00
2018-09-18T10:29:06.983Z,83872.00
2018-09-18T10:30:06.940Z,76256.00
2018-09-18T10:31:06.941Z,89600.00
2018-09-18T10:32:06.921Z,91328.00
2018-09-18T10:33:06.890Z,93792.00
2018-09-18T10:34:06.943Z,85728.00
2018-09-18T10:35:06.935Z,89984.00
2018-09-18T10:36:06.898Z,101792.00
2018-09-18T10:37:06.811Z,92832.00
2018-09-18T10:38:06.865Z,85312.00
2018-09-18T10:39:06.819Z,79648.00
2018-09-18T10:40:06.792Z,80960.00
2018-09-18T10:41:06.905Z,85376.00
2018-09-18T10:42:06.827Z,91968.00
2018-09-18T10:43:06.741Z,102176.00
2018-09-18T10:44:06.817Z,100512.00
2018-09-18T10:45:06.711Z,99648.00
2018-09-18T10:46:06.698Z,95136.00
2018-09-18T10:47:06.686Z,89664.00
2018-09-18T10:48:06.659Z,87424.00
2018-09-18T10:49:06.641Z,91392.00
2018-09-18T10:50:06.611Z,100576.00
2018-09-18T10:51:06.624Z,102400.00
2018-09-18T10:52:06.570Z,99680.00
2018-09-18T10:53:06.559Z,94816.00
2018-09-18T10:54:06.548Z,95200.00
2018-09-18T10:55:06.520Z,88896.00
2018-09-18T10:56:06.500Z,82720.00
2018-09-18T10:57:06.494Z,73152.00
2018-09-18T10:58:06.469Z,85376.00
2018-09-18T10:59:06.443Z,94400.00
2018-09-18T11:00:06.437Z,97376.00
2018-09-18T11:01:06.422Z,90560.00
2018-09-18T11:02:06.447Z,84416.00
2018-09-18T11:03:06.391Z,85792.00
2018-09-18T11:04:06.362Z,89952.00
2018-09-18T11:05:06.342Z,94048.00
2018-09-18T11:06:06.347Z,89568.00
2018-09-18T11:07:06.390Z,92480.00
2018-09-18T11:08:06.314Z,92064.00
2018-09-18T11:09:06.287Z,93792.00
2018-09-18T11:10:06.255Z,87136.00
2018-09-18T11:11:06.299Z,80256.00
2018-09-18T11:12:06.241Z,82976.00
2018-09-18T11:13:06.233Z,92864.00
2018-09-18T11:14:07.212Z,96416.00
2018-09-18T11:15:06.215Z,92832.00
2018-09-18T11:16:06.190Z,91744.00
2018-09-18T11:17:06.204Z,86144.00
2018-09-18T11:18:06.122Z,85088.00
2018-09-18T11:19:06.219Z,85632.00
2018-09-18T11:20:06.108Z,86656.00
2018-09-18T11:21:06.119Z,85344.00
2018-09-18T11:22:06.077Z,91232.00
2018-09-18T11:23:06.062Z,83776.00
2018-09-18T11:24:06.210Z,84864.00
2018-09-18T11:25:06.036Z,73056.00
2018-09-18T11:26:06.068Z,80576.00
2018-09-18T11:27:05.985Z,87456.00
2018-09-18T11:28:05.961Z,97888.00
2018-09-18T11:29:05.935Z,103232.00
2018-09-18T11:30:05.945Z,99200.00
2018-09-18T11:31:05.974Z,89248.00
2018-09-18T11:32:05.906Z,82624.00
2018-09-18T11:33:05.936Z,82144.00
2018-09-18T11:34:05.891Z,80416.00
2018-09-18T11:35:05.887Z,79072.00
2018-09-18T11:36:05.815Z,80928.00
2018-09-18T11:37:05.821Z,91872.00
2018-09-18T11:38:05.797Z,101696.00
2018-09-18T11:39:05.773Z,99712.00
2018-09-18T11:40:05.752Z,101024.00
2018-09-18T11:41:05.753Z,91200.00
2018-09-18T11:42:05.720Z,94944.00
2018-09-18T11:43:05.700Z,91392.00
2018-09-18T11:44:05.675Z,84352.00
2018-09-18T11:45:05.687Z,83072.00
2018-09-18T11:46:05.792Z,88000.00
2018-09-18T11:47:05.660Z,95968.00
2018-09-18T11:48:05.685Z,83744.00
2018-09-18T11:49:05.617Z,84480.00
2018-09-18T11:50:05.622Z,94080.00
2018-09-18T11:51:05.549Z,98016.00
2018-09-18T11:52:05.616Z,94336.00
2018-09-18T11:53:05.568Z,88192.00
2018-09-18T11:54:05.569Z,71584.00
2018-09-18T11:55:05.555Z,46880.00
2018-09-18T11:56:05.456Z,40960.00
2018-09-18T11:57:05.461Z,36800.00
2018-09-18T11:58:05.428Z,38272.00
2018-09-18T11:59:05.398Z,40704.00
2018-09-18T12:00:05.402Z,43136.00
2018-09-18T12:01:05.376Z,37152.00
2018-09-18T12:02:05.410Z,39360.00
2018-09-18T12:03:05.387Z,40032.00
2018-09-18T12:04:05.335Z,41760.00
2018-09-18T12:05:05.405Z,38368.00
2018-09-18T12:06:05.279Z,35776.00
2018-09-18T12:07:05.298Z,36576.00
2018-09-18T12:08:05.258Z,40224.00
2018-09-18T12:09:05.257Z,37376.00
2018-09-18T12:10:05.233Z,38944.00
2018-09-18T12:11:05.206Z,45728.00
2018-09-18T12:12:05.187Z,47328.00
2018-09-18T12:13:05.157Z,48096.00
2018-09-18T12:14:05.144Z,45568.00
2018-09-18T12:15:05.119Z,42752.00
2018-09-18T12:16:05.107Z,40512.00
2018-09-18T12:17:05.127Z,40128.00
2018-09-18T12:18:05.071Z,44480.00
2018-09-18T12:19:05.044Z,53696.00
2018-09-18T12:20:05.026Z,51136.00
2018-09-18T12:21:05.026Z,49760.00